sensor_id;sensor_type;location;lat;lon;timestamp;P1;durP1;ratioP1;P2;durP2;ratioP2
70560;SDS011;58109;53.570;10.084;2023-05-07T13:06:39;2.67;;;2.43;;
70560;SDS011;58109;53.570;10.084;2023-05-07T13:09:05;3.57;;;2.87;;
70560;SDS011;58109;53.570;10.084;2023-05-07T13:11:33;7.73;;;3.20;;
70560;SDS011;58109;53.570;10.084;2023-05-07T13:13:58;8.80;;;3.43;;
70560;SDS011;58109;53.570;10.084;2023-05-07T13:16:24;4.70;;;2.60;;
70560;SDS011;58109;53.570;10.084;2023-05-07T13:18:51;3.70;;;2.60;;
70560;SDS011;58109;53.570;10.084;2023-05-07T13:21:16;4.97;;;2.33;;
70560;SDS011;58109;53.570;10.084;2023-05-07T13:23:44;4.67;;;2.87;;
70560;SDS011;58109;53.570;10.084;2023-05-07T13:26:10;6.43;;;2.57;;
70560;SDS011;58109;53.570;10.084;2023-05-07T13:28:35;5.50;;;2.63;;
70560;SDS011;58109;53.570;10.084;2023-05-07T13:31:05;3.73;;;3.00;;
70560;SDS011;58109;53.570;10.084;2023-05-07T13:33:30;7.53;;;2.77;;
70560;SDS011;58109;53.570;10.084;2023-05-07T13:36:01;3.03;;;2.50;;
70560;SDS011;58109;53.570;10.084;2023-05-07T13:38:29;11.37;;;2.63;;
70560;SDS011;58109;53.570;10.084;2023-05-07T13:40:55;5.00;;;2.53;;
70560;SDS011;58109;53.570;10.084;2023-05-07T13:43:20;5.60;;;2.20;;
70560;SDS011;58109;53.570;10.084;2023-05-07T13:45:48;10.10;;;2.70;;
70560;SDS011;58109;53.570;10.084;2023-05-07T13:48:13;7.80;;;2.20;;
70560;SDS011;58109;53.570;10.084;2023-05-07T13:50:41;3.63;;;2.67;;
70560;SDS011;58109;53.570;10.084;2023-05-07T13:53:08;4.00;;;2.40;;
70560;SDS011;58109;53.570;10.084;2023-05-07T13:55:36;6.77;;;3.03;;
70560;SDS011;58109;53.570;10.084;2023-05-07T13:58:04;2.23;;;2.03;;
70560;SDS011;58109;53.570;10.084;2023-05-07T14:00:34;4.37;;;2.07;;
70560;SDS011;58109;53.570;10.084;2023-05-07T14:03:00;4.23;;;1.87;;
70560;SDS011;58109;53.570;10.084;2023-05-07T14:05:25;4.50;;;2.43;;
70560;SDS011;58109;53.570;10.084;2023-05-07T14:07:55;3.93;;;2.37;;
70560;SDS011;58109;53.570;10.084;2023-05-07T14:10:31;3.80;;;2.80;;
70560;SDS011;58109;53.570;10.084;2023-05-07T14:12:58;2.63;;;2.43;;
70560;SDS011;58109;53.570;10.084;2023-05-07T14:15:27;4.80;;;2.57;;
70560;SDS011;58109;53.570;10.084;2023-05-07T14:17:52;4.50;;;2.13;;
70560;SDS011;58109;53.570;10.084;2023-05-07T14:20:20;10.03;;;2.30;;
70560;SDS011;58109;53.570;10.084;2023-05-07T14:22:48;4.30;;;2.93;;
70560;SDS011;58109;53.570;10.084;2023-05-07T14:25:13;5.00;;;2.03;;
70560;SDS011;58109;53.570;10.084;2023-05-07T14:27:39;2.57;;;2.37;;
70560;SDS011;58109;53.570;10.084;2023-05-07T14:30:07;2.73;;;2.17;;
70560;SDS011;58109;53.570;10.084;2023-05-07T14:32:33;7.53;;;2.30;;
70560;SDS011;58109;53.570;10.084;2023-05-07T14:34:58;7.33;;;2.40;;
70560;SDS011;58109;53.570;10.084;2023-05-07T14:37:24;3.13;;;2.60;;
70560;SDS011;58109;53.570;10.084;2023-05-07T14:39:54;4.87;;;2.37;;
70560;SDS011;58109;53.570;10.084;2023-05-07T14:42:22;3.50;;;2.17;;
70560;SDS011;58109;53.570;10.084;2023-05-07T14:44:47;3.20;;;2.10;;
70560;SDS011;58109;53.570;10.084;2023-05-07T14:47:13;3.13;;;1.90;;
70560;SDS011;58109;53.570;10.084;2023-05-07T14:49:41;7.27;;;2.63;;
70560;SDS011;58109;53.570;10.084;2023-05-07T14:52:09;5.03;;;2.40;;
70560;SDS011;58109;53.570;10.084;2023-05-07T14:54:35;11.83;;;2.70;;
70560;SDS011;58109;53.570;10.084;2023-05-07T14:57:01;2.43;;;2.23;;
70560;SDS011;58109;53.570;10.084;2023-05-07T14:59:29;2.47;;;2.27;;
70560;SDS011;58109;53.570;10.084;2023-05-07T15:01:58;2.53;;;2.00;;
70560;SDS011;58109;53.570;10.084;2023-05-07T15:04:23;3.73;;;2.23;;
70560;SDS011;58109;53.570;10.084;2023-05-07T15:06:53;2.80;;;2.30;;
70560;SDS011;58109;53.570;10.084;2023-05-07T15:09:21;2.00;;;1.90;;
70560;SDS011;58109;53.570;10.084;2023-05-07T15:11:49;3.83;;;2.40;;
70560;SDS011;58109;53.570;10.084;2023-05-07T15:14:14;3.03;;;2.27;;
70560;SDS011;58109;53.570;10.084;2023-05-07T15:16:40;2.90;;;2.43;;
70560;SDS011;58109;53.570;10.084;2023-05-07T15:19:05;2.47;;;2.27;;
70560;SDS011;58109;53.570;10.084;2023-05-07T15:21:33;1.90;;;1.70;;
70560;SDS011;58109;53.570;10.084;2023-05-07T15:23:59;2.83;;;1.80;;
70560;SDS011;58109;53.570;10.084;2023-05-07T15:26:25;2.30;;;2.10;;
70560;SDS011;58109;53.570;10.084;2023-05-07T15:28:51;2.43;;;1.87;;
70560;SDS011;58109;53.570;10.084;2023-05-07T15:31:17;2.27;;;2.07;;
70560;SDS011;58109;53.570;10.084;2023-05-07T15:33:42;2.53;;;2.33;;
70560;SDS011;58109;53.570;10.084;2023-05-07T15:36:10;2.30;;;2.10;;
70560;SDS011;58109;53.570;10.084;2023-05-07T15:38:35;2.00;;;1.90;;
70560;SDS011;58109;53.570;10.084;2023-05-07T15:41:01;6.13;;;2.27;;
70560;SDS011;58109;53.570;10.084;2023-05-07T15:43:29;4.67;;;2.13;;
70560;SDS011;58109;53.570;10.084;2023-05-07T15:45:56;2.43;;;2.20;;
70560;SDS011;58109;53.570;10.084;2023-05-07T15:48:24;4.13;;;2.53;;
70560;SDS011;58109;53.570;10.084;2023-05-07T15:50:52;6.67;;;2.53;;
70560;SDS011;58109;53.570;10.084;2023-05-07T15:53:18;2.70;;;2.50;;
70560;SDS011;58109;53.570;10.084;2023-05-07T15:55:43;3.83;;;2.37;;
70560;SDS011;58109;53.570;10.084;2023-05-07T15:58:12;2.80;;;2.50;;
70560;SDS011;58109;53.570;10.084;2023-05-07T16:00:37;2.20;;;1.97;;
70560;SDS011;58109;53.570;10.084;2023-05-07T16:03:07;3.17;;;2.40;;
70560;SDS011;58109;53.570;10.084;2023-05-07T16:05:32;3.67;;;2.57;;
70560;SDS011;58109;53.570;10.084;2023-05-07T16:07:58;9.80;;;2.10;;
70560;SDS011;58109;53.570;10.084;2023-05-07T16:10:25;2.40;;;1.93;;
70560;SDS011;58109;53.570;10.084;2023-05-07T16:12:55;3.23;;;2.20;;
70560;SDS011;58109;53.570;10.084;2023-05-07T16:15:23;3.10;;;2.77;;
70560;SDS011;58109;53.570;10.084;2023-05-07T16:17:49;4.67;;;2.30;;
70560;SDS011;58109;53.570;10.084;2023-05-07T16:20:15;2.43;;;2.23;;
70560;SDS011;58109;53.570;10.084;2023-05-07T16:22:43;2.17;;;1.97;;
70560;SDS011;58109;53.570;10.084;2023-05-07T16:25:11;3.90;;;2.10;;
70560;SDS011;58109;53.570;10.084;2023-05-07T16:27:38;4.10;;;3.00;;
70560;SDS011;58109;53.570;10.084;2023-05-07T16:30:04;6.60;;;2.30;;
70560;SDS011;58109;53.570;10.084;2023-05-07T16:32:32;8.10;;;2.60;;
70560;SDS011;58109;53.570;10.084;2023-05-07T16:34:58;8.13;;;2.00;;
70560;SDS011;58109;53.570;10.084;2023-05-07T16:37:26;3.83;;;2.40;;
70560;SDS011;58109;53.570;10.084;2023-05-07T16:39:54;4.27;;;2.13;;
70560;SDS011;58109;53.570;10.084;2023-05-07T16:42:26;4.63;;;3.03;;
70560;SDS011;58109;53.570;10.084;2023-05-07T16:44:52;14.93;;;4.40;;
70560;SDS011;58109;53.570;10.084;2023-05-07T16:47:18;23.50;;;5.40;;
70560;SDS011;58109;53.570;10.084;2023-05-07T16:49:49;10.97;;;3.70;;
70560;SDS011;58109;53.570;10.084;2023-05-07T16:52:16;47.13;;;12.40;;
70560;SDS011;58109;53.570;10.084;2023-05-07T16:54:42;55.47;;;13.13;;
70560;SDS011;58109;53.570;10.084;2023-05-07T16:57:07;35.90;;;9.27;;
70560;SDS011;58109;53.570;10.084;2023-05-07T16:59:33;99.87;;;27.10;;
70560;SDS011;58109;53.570;10.084;2023-05-07T17:02:03;3.53;;;2.17;;
70560;SDS011;58109;53.570;10.084;2023-05-07T17:04:31;4.23;;;2.27;;
70560;SDS011;58109;53.570;10.084;2023-05-07T17:06:57;2.43;;;2.23;;
70560;SDS011;58109;53.570;10.084;2023-05-07T17:09:25;5.10;;;2.57;;
70560;SDS011;58109;53.570;10.084;2023-05-07T17:11:51;2.80;;;2.43;;
70560;SDS011;58109;53.570;10.084;2023-05-07T17:14:18;46.93;;;13.00;;
70560;SDS011;58109;53.570;10.084;2023-05-07T17:16:43;145.37;;;34.23;;
70560;SDS011;58109;53.570;10.084;2023-05-07T17:19:09;150.77;;;31.20;;
70560;SDS011;58109;53.570;10.084;2023-05-07T17:21:37;88.50;;;24.43;;
70560;SDS011;58109;53.570;10.084;2023-05-07T17:24:02;99.93;;;22.87;;
70560;SDS011;58109;53.570;10.084;2023-05-07T17:26:31;58.50;;;16.63;;
70560;SDS011;58109;53.570;10.084;2023-05-07T17:29:00;42.20;;;11.20;;
70560;SDS011;58109;53.570;10.084;2023-05-07T17:31:28;11.77;;;4.30;;
70560;SDS011;58109;53.570;10.084;2023-05-07T17:34:26;3.27;;;2.30;;
70560;SDS011;58109;53.570;10.084;2023-05-07T17:36:54;2.53;;;2.20;;
70560;SDS011;58109;53.570;10.084;2023-05-07T17:39:23;1.90;;;1.80;;
70560;SDS011;58109;53.570;10.084;2023-05-07T17:41:49;2.50;;;2.03;;
70560;SDS011;58109;53.570;10.084;2023-05-07T17:44:17;3.90;;;2.53;;
70560;SDS011;58109;53.570;10.084;2023-05-07T17:46:45;2.90;;;1.87;;
70560;SDS011;58109;53.570;10.084;2023-05-07T17:49:13;4.23;;;2.40;;
70560;SDS011;58109;53.570;10.084;2023-05-07T17:51:42;3.87;;;2.50;;
70560;SDS011;58109;53.570;10.084;2023-05-07T17:54:10;5.83;;;2.30;;
70560;SDS011;58109;53.570;10.084;2023-05-07T17:56:38;4.93;;;1.90;;
70560;SDS011;58109;53.570;10.084;2023-05-07T17:59:04;3.23;;;2.30;;
70560;SDS011;58109;53.570;10.084;2023-05-07T18:01:31;2.57;;;2.30;;
70560;SDS011;58109;53.570;10.084;2023-05-07T18:03:58;2.10;;;1.73;;
70560;SDS011;58109;53.570;10.084;2023-05-07T18:06:23;7.60;;;2.47;;
70560;SDS011;58109;53.570;10.084;2023-05-07T18:08:48;5.60;;;2.50;;
70560;SDS011;58109;53.570;10.084;2023-05-07T18:11:14;2.20;;;2.10;;
70560;SDS011;58109;53.570;10.084;2023-05-07T18:13:44;2.90;;;2.40;;
70560;SDS011;58109;53.570;10.084;2023-05-07T18:16:12;5.60;;;2.20;;
70560;SDS011;58109;53.570;10.084;2023-05-07T18:18:40;2.60;;;2.13;;
70560;SDS011;58109;53.570;10.084;2023-05-07T18:21:05;2.37;;;2.20;;
70560;SDS011;58109;53.570;10.084;2023-05-07T18:23:31;3.90;;;2.10;;
70560;SDS011;58109;53.570;10.084;2023-05-07T18:25:59;3.23;;;1.90;;
70560;SDS011;58109;53.570;10.084;2023-05-07T18:28:27;5.90;;;2.40;;
70560;SDS011;58109;53.570;10.084;2023-05-07T18:30:55;5.50;;;2.90;;
70560;SDS011;58109;53.570;10.084;2023-05-07T18:33:23;4.63;;;2.17;;
70560;SDS011;58109;53.570;10.084;2023-05-07T18:35:51;3.20;;;1.90;;
70560;SDS011;58109;53.570;10.084;2023-05-07T18:38:16;6.60;;;2.30;;
70560;SDS011;58109;53.570;10.084;2023-05-07T18:40:42;3.37;;;2.37;;
70560;SDS011;58109;53.570;10.084;2023-05-07T18:43:08;2.67;;;1.87;;
70560;SDS011;58109;53.570;10.084;2023-05-07T18:45:39;4.47;;;2.57;;
70560;SDS011;58109;53.570;10.084;2023-05-07T18:48:06;2.63;;;2.43;;
70560;SDS011;58109;53.570;10.084;2023-05-07T18:50:35;4.00;;;2.30;;
70560;SDS011;58109;53.570;10.084;2023-05-07T18:53:05;4.50;;;2.13;;
70560;SDS011;58109;53.570;10.084;2023-05-07T18:55:33;2.80;;;2.27;;
70560;SDS011;58109;53.570;10.084;2023-05-07T18:58:00;3.57;;;2.23;;
70560;SDS011;58109;53.570;10.084;2023-05-07T19:00:26;5.23;;;2.37;;
70560;SDS011;58109;53.570;10.084;2023-05-07T19:02:51;3.30;;;2.50;;
70560;SDS011;58109;53.570;10.084;2023-05-07T19:05:16;5.77;;;2.30;;
70560;SDS011;58109;53.570;10.084;2023-05-07T19:07:43;3.00;;;2.00;;
70560;SDS011;58109;53.570;10.084;2023-05-07T19:10:12;2.50;;;2.30;;
70560;SDS011;58109;53.570;10.084;2023-05-07T19:12:38;3.40;;;2.13;;
70560;SDS011;58109;53.570;10.084;2023-05-07T19:15:45;3.57;;;2.43;;
70560;SDS011;58109;53.570;10.084;2023-05-07T19:18:15;2.70;;;2.20;;
70560;SDS011;58109;53.570;10.084;2023-05-07T19:20:46;2.33;;;2.13;;
70560;SDS011;58109;53.570;10.084;2023-05-07T19:23:14;4.63;;;1.97;;
70560;SDS011;58109;53.570;10.084;2023-05-07T19:25:40;3.20;;;2.40;;
70560;SDS011;58109;53.570;10.084;2023-05-07T19:28:08;2.40;;;2.20;;
70560;SDS011;58109;53.570;10.084;2023-05-07T19:30:37;2.30;;;2.10;;
70560;SDS011;58109;53.570;10.084;2023-05-07T19:33:07;4.07;;;1.90;;
70560;SDS011;58109;53.570;10.084;2023-05-07T19:35:35;6.50;;;2.20;;
70560;SDS011;58109;53.570;10.084;2023-05-07T19:38:01;3.43;;;1.80;;
70560;SDS011;58109;53.570;10.084;2023-05-07T19:40:27;2.63;;;2.17;;
70560;SDS011;58109;53.570;10.084;2023-05-07T19:42:52;4.00;;;2.10;;
70560;SDS011;58109;53.570;10.084;2023-05-07T19:45:18;6.43;;;3.73;;
70560;SDS011;58109;53.570;10.084;2023-05-07T19:47:48;4.03;;;2.40;;
70560;SDS011;58109;53.570;10.084;2023-05-07T19:50:14;3.57;;;1.83;;
70560;SDS011;58109;53.570;10.084;2023-05-07T19:52:40;3.27;;;2.47;;
70560;SDS011;58109;53.570;10.084;2023-05-07T19:55:05;4.13;;;2.50;;
70560;SDS011;58109;53.570;10.084;2023-05-07T19:57:32;2.90;;;2.40;;
70560;SDS011;58109;53.570;10.084;2023-05-07T19:59:58;2.80;;;2.50;;
70560;SDS011;58109;53.570;10.084;2023-05-07T20:02:23;3.30;;;2.23;;
70560;SDS011;58109;53.570;10.084;2023-05-07T20:04:53;2.47;;;2.17;;
70560;SDS011;58109;53.570;10.084;2023-05-07T20:07:21;5.23;;;3.00;;
70560;SDS011;58109;53.570;10.084;2023-05-07T20:09:49;2.03;;;1.93;;
70560;SDS011;58109;53.570;10.084;2023-05-07T20:12:15;3.60;;;2.90;;
70560;SDS011;58109;53.570;10.084;2023-05-07T20:14:41;4.77;;;2.23;;
70560;SDS011;58109;53.570;10.084;2023-05-07T20:17:07;4.90;;;2.47;;
70560;SDS011;58109;53.570;10.084;2023-05-07T20:19:32;3.23;;;2.37;;
70560;SDS011;58109;53.570;10.084;2023-05-07T20:21:58;3.57;;;2.40;;
70560;SDS011;58109;53.570;10.084;2023-05-07T20:24:26;3.40;;;2.10;;
70560;SDS011;58109;53.570;10.084;2023-05-07T20:26:54;6.37;;;2.47;;
70560;SDS011;58109;53.570;10.084;2023-05-07T20:29:24;4.77;;;2.63;;
70560;SDS011;58109;53.570;10.084;2023-05-07T20:32:14;12.97;;;3.20;;
70560;SDS011;58109;53.570;10.084;2023-05-07T20:34:39;9.83;;;2.93;;
70560;SDS011;58109;53.570;10.084;2023-05-07T20:37:05;3.47;;;2.40;;
70560;SDS011;58109;53.570;10.084;2023-05-07T20:39:35;8.57;;;4.63;;
70560;SDS011;58109;53.570;10.084;2023-05-07T20:42:01;8.13;;;4.27;;
70560;SDS011;58109;53.570;10.084;2023-05-07T20:44:26;3.87;;;2.87;;
70560;SDS011;58109;53.570;10.084;2023-05-07T20:46:52;3.73;;;2.40;;
70560;SDS011;58109;53.570;10.084;2023-05-07T20:49:19;5.13;;;2.80;;
70560;SDS011;58109;53.570;10.084;2023-05-07T20:51:47;3.40;;;2.60;;
70560;SDS011;58109;53.570;10.084;2023-05-07T20:54:12;5.40;;;2.90;;
70560;SDS011;58109;53.570;10.084;2023-05-07T20:56:38;5.27;;;2.70;;
70560;SDS011;58109;53.570;10.084;2023-05-07T20:59:06;5.60;;;2.60;;
70560;SDS011;58109;53.570;10.084;2023-05-07T21:01:31;3.47;;;2.50;;
70560;SDS011;58109;53.570;10.084;2023-05-07T21:03:57;6.93;;;2.70;;
70560;SDS011;58109;53.570;10.084;2023-05-07T21:06:23;5.60;;;3.10;;
70560;SDS011;58109;53.570;10.084;2023-05-07T21:08:53;3.17;;;2.87;;
70560;SDS011;58109;53.570;10.084;2023-05-07T21:11:19;5.33;;;3.10;;
70560;SDS011;58109;53.570;10.084;2023-05-07T21:13:44;4.30;;;2.87;;
70560;SDS011;58109;53.570;10.084;2023-05-07T21:16:09;3.33;;;2.40;;
70560;SDS011;58109;53.570;10.084;2023-05-07T21:18:35;5.00;;;2.93;;
70560;SDS011;58109;53.570;10.084;2023-05-07T21:21:01;6.77;;;2.80;;
70560;SDS011;58109;53.570;10.084;2023-05-07T21:23:30;6.83;;;2.87;;
70560;SDS011;58109;53.570;10.084;2023-05-07T21:26:00;3.03;;;2.70;;
70560;SDS011;58109;53.570;10.084;2023-05-07T21:28:28;6.90;;;2.97;;
70560;SDS011;58109;53.570;10.084;2023-05-07T21:30:54;4.27;;;2.67;;
70560;SDS011;58109;53.570;10.084;2023-05-07T21:33:19;3.97;;;3.03;;
70560;SDS011;58109;53.570;10.084;2023-05-07T21:35:49;5.60;;;3.50;;
70560;SDS011;58109;53.570;10.084;2023-05-07T21:38:17;6.20;;;3.17;;
70560;SDS011;58109;53.570;10.084;2023-05-07T21:40:43;4.37;;;2.87;;
70560;SDS011;58109;53.570;10.084;2023-05-07T21:43:08;5.37;;;2.90;;
70560;SDS011;58109;53.570;10.084;2023-05-07T21:45:34;5.40;;;2.83;;
70560;SDS011;58109;53.570;10.084;2023-05-07T21:48:04;2.90;;;2.60;;
70560;SDS011;58109;53.570;10.084;2023-05-07T21:50:30;4.10;;;2.60;;
70560;SDS011;58109;53.570;10.084;2023-05-07T21:52:56;4.33;;;2.20;;
70560;SDS011;58109;53.570;10.084;2023-05-07T21:55:21;4.03;;;2.47;;
70560;SDS011;58109;53.570;10.084;2023-05-07T21:57:47;4.10;;;2.50;;
70560;SDS011;58109;53.570;10.084;2023-05-07T22:00:12;2.87;;;2.57;;
70560;SDS011;58109;53.570;10.084;2023-05-07T22:02:40;4.93;;;2.90;;
70560;SDS011;58109;53.570;10.084;2023-05-07T22:05:06;3.00;;;2.60;;
70560;SDS011;58109;53.570;10.084;2023-05-07T22:07:31;4.33;;;2.83;;
70560;SDS011;58109;53.570;10.084;2023-05-07T22:09:59;2.43;;;2.23;;
70560;SDS011;58109;53.570;10.084;2023-05-07T22:12:27;2.63;;;2.37;;
70560;SDS011;58109;53.570;10.084;2023-05-07T22:14:53;3.87;;;2.77;;
70560;SDS011;58109;53.570;10.084;2023-05-07T22:17:18;4.63;;;2.40;;
70560;SDS011;58109;53.570;10.084;2023-05-07T22:19:50;4.70;;;2.60;;
70560;SDS011;58109;53.570;10.084;2023-05-07T22:22:16;3.10;;;2.23;;
70560;SDS011;58109;53.570;10.084;2023-05-07T22:24:43;3.33;;;2.80;;
70560;SDS011;58109;53.570;10.084;2023-05-07T22:27:09;5.80;;;3.00;;
70560;SDS011;58109;53.570;10.084;2023-05-07T22:29:35;2.30;;;2.00;;
70560;SDS011;58109;53.570;10.084;2023-05-07T22:32:00;4.70;;;2.50;;
70560;SDS011;58109;53.570;10.084;2023-05-07T22:34:26;3.53;;;2.40;;
70560;SDS011;58109;53.570;10.084;2023-05-07T22:36:51;9.90;;;2.50;;
70560;SDS011;58109;53.570;10.084;2023-05-07T22:39:16;3.53;;;2.10;;
70560;SDS011;58109;53.570;10.084;2023-05-07T22:41:42;5.27;;;2.93;;
70560;SDS011;58109;53.570;10.084;2023-05-07T22:44:13;3.77;;;2.30;;
70560;SDS011;58109;53.570;10.084;2023-05-07T22:46:38;5.00;;;3.00;;
70560;SDS011;58109;53.570;10.084;2023-05-07T22:49:04;3.43;;;2.43;;
70560;SDS011;58109;53.570;10.084;2023-05-07T22:51:29;2.67;;;2.40;;
70560;SDS011;58109;53.570;10.084;2023-05-07T22:53:55;4.53;;;3.13;;
70560;SDS011;58109;53.570;10.084;2023-05-07T22:56:20;3.33;;;3.03;;
70560;SDS011;58109;53.570;10.084;2023-05-07T22:58:46;2.40;;;2.20;;
70560;SDS011;58109;53.570;10.084;2023-05-07T23:01:15;4.80;;;2.80;;
70560;SDS011;58109;53.570;10.084;2023-05-07T23:03:43;2.67;;;2.47;;
70560;SDS011;58109;53.570;10.084;2023-05-07T23:06:09;2.50;;;2.30;;
70560;SDS011;58109;53.570;10.084;2023-05-07T23:08:34;2.43;;;2.27;;
70560;SDS011;58109;53.570;10.084;2023-05-07T23:11:00;2.97;;;2.67;;
70560;SDS011;58109;53.570;10.084;2023-05-07T23:13:26;3.60;;;2.83;;
70560;SDS011;58109;53.570;10.084;2023-05-07T23:15:51;6.00;;;2.80;;
70560;SDS011;58109;53.570;10.084;2023-05-07T23:18:16;2.73;;;2.53;;
70560;SDS011;58109;53.570;10.084;2023-05-07T23:20:47;4.10;;;2.80;;
70560;SDS011;58109;53.570;10.084;2023-05-07T23:23:12;3.03;;;2.73;;
70560;SDS011;58109;53.570;10.084;2023-05-07T23:25:38;5.20;;;2.70;;
70560;SDS011;58109;53.570;10.084;2023-05-07T23:28:08;4.93;;;2.77;;
70560;SDS011;58109;53.570;10.084;2023-05-07T23:30:33;5.20;;;2.70;;
70560;SDS011;58109;53.570;10.084;2023-05-07T23:32:59;5.10;;;2.47;;
70560;SDS011;58109;53.570;10.084;2023-05-07T23:35:27;3.00;;;2.67;;
70560;SDS011;58109;53.570;10.084;2023-05-07T23:37:55;2.77;;;2.57;;
70560;SDS011;58109;53.570;10.084;2023-05-07T23:40:22;2.67;;;2.37;;
70560;SDS011;58109;53.570;10.084;2023-05-07T23:42:48;2.43;;;2.23;;
70560;SDS011;58109;53.570;10.084;2023-05-07T23:45:16;3.03;;;2.57;;
70560;SDS011;58109;53.570;10.084;2023-05-07T23:47:41;3.47;;;2.33;;
70560;SDS011;58109;53.570;10.084;2023-05-07T23:50:10;2.90;;;2.70;;
70560;SDS011;58109;53.570;10.084;2023-05-07T23:52:37;3.33;;;2.80;;
70560;SDS011;58109;53.570;10.084;2023-05-07T23:55:03;4.20;;;2.70;;
70560;SDS011;58109;53.570;10.084;2023-05-07T23:57:29;3.83;;;2.80;;
70560;SDS011;58109;53.570;10.084;2023-05-07T23:59:57;3.53;;;2.77;;
